Data for 03/03/2013

Time Sea-Level Adjusted Pressure Absolute Pressure Temperature Relative Humidity Dew Point   
(mb) (inHg) (mb) (inHg) (C) (F) (%) (C) (F)
00:05 1014 29.94 844 24.92 4.3 39.7 60 -2.7 27.1
00:10 1014 29.94 844 24.92 4.3 39.7 61 -2.6 27.3
00:15 1014 29.94 843 24.89 4.1 39.4 61 -2.8 27
00:20 1014 29.94 843 24.89 4.1 39.3 62 -2.5 27.4
00:25 1014 29.94 843 24.89 3.9 39 62 -2.8 27
00:30 1014 29.94 843 24.89 4.1 39.4 60 -2.9 26.8
00:35 1014 29.94 843 24.89 4.3 39.7 60 -2.8 26.9
00:40 1014 29.94 843 24.89 4.3 39.8 59 -3 26.7
00:45 1014 29.94 843 24.89 4.6 40.2 58 -2.9 26.8
00:50 1014 29.94 843 24.89 4.5 40.1 58 -3 26.5
00:55 1014 29.94 843 24.89 4.6 40.3 57 -3.1 26.4
01:00 1014 29.94 843 24.89 4.7 40.4 58 -2.9 26.9
01:05 1014 29.94 843 24.89 4.5 40.1 57 -3.1 26.3
01:10 1014 29.94 843 24.89 5 41 54 -3.6 25.6
01:15 1014 29.94 843 24.89 5.4 41.7 54 -3.1 26.5
01:20 1014 29.94 843 24.89 5 41 57 -2.8 26.9
01:25 1014 29.94 843 24.89 4.9 40.9 57 -2.8 26.9
01:30 1014 29.94 843 24.89 4.4 40 60 -2.6 27.4
01:35 1014 29.94 843 24.89 4 39.2 62 -2.6 27.3
01:40 1014 29.94 843 24.89 3.8 38.9 60 -3.2 26.2
01:45 1014 29.94 843 24.89 4.2 39.5 60 -3 26.7
01:50 1013 29.91 843 24.89 4.1 39.4 61 -2.8 27
01:55 1013 29.91 843 24.89 3.9 39 61 -3 26.6
02:00 1013 29.91 842 24.86 4.1 39.4 59 -3.2 26.3
02:05 1013 29.91 842 24.86 4.3 39.8 59 -3 26.5
02:10 1013 29.91 842 24.86 4.3 39.7 60 -2.9 26.8
02:15 1013 29.91 842 24.86 4.1 39.4 61 -2.7 27.2
02:20 1013 29.91 842 24.86 3.8 38.9 63 -2.6 27.3
02:25 1013 29.91 842 24.86 4 39.2 57 -3.7 25.3
02:30 1013 29.91 842 24.86 5.6 42 48 -4.6 23.6
02:35 1013 29.91 842 24.86 6.6 43.8 46 -4.3 24.2
02:40 1013 29.91 842 24.86 6.8 44.2 45 -4.2 24.4
02:45 1013 29.91 842 24.86 7 44.6 44 -4.4 24.1
02:50 1013 29.91 842 24.86 7.2 44.9 44 -4.2 24.5
02:55 1013 29.91 842 24.86 7.1 44.7 45 -4 24.8
03:00 1012 29.88 842 24.86 6.9 44.4 45 -4.1 24.6
03:05 1012 29.88 842 24.86 6.9 44.4 46 -4 24.7
03:10 1012 29.88 841 24.83 7.1 44.7 45 -4.2 24.5
03:15 1012 29.88 841 24.83 7.2 44.9 44 -4.1 24.6
03:20 1012 29.88 841 24.83 7.1 44.8 45 -4.1 24.7
03:25 1012 29.88 841 24.83 7.1 44.7 45 -4.1 24.7
03:30 1012 29.88 841 24.83 7.1 44.7 45 -4 24.8
03:35 1012 29.88 841 24.83 6.9 44.5 46 -3.8 25.1
03:40 1012 29.88 841 24.83 6.9 44.4 46 -4 24.8
03:45 1012 29.88 841 24.83 6.8 44.2 47 -3.8 25.2
03:50 1012 29.88 841 24.83 6.7 44.1 47 -3.8 25.2
03:55 1011 29.85 841 24.83 6.6 43.9 47 -3.8 25.2
04:00 1011 29.85 841 24.83 6.5 43.7 49 -3.5 25.7
04:05 1011 29.85 841 24.83 6.5 43.8 47 -3.9 24.9
04:10 1011 29.85 840 24.81 6.7 44.1 47 -3.7 25.3
04:15 1011 29.85 840 24.81 6.7 44.1 47 -3.7 25.3
04:20 1011 29.85 840 24.81 6.9 44.4 47 -3.7 25.4
04:25 1011 29.85 840 24.81 6.8 44.3 47 -3.8 25.2
04:30 1011 29.85 840 24.81 6.9 44.4 47 -3.7 25.4
04:35 1011 29.85 840 24.81 6.9 44.4 47 -3.7 25.3
04:40 1011 29.85 840 24.81 6.9 44.4 47 -3.7 25.3
04:45 1011 29.85 840 24.81 6.9 44.3 47 -3.6 25.5
04:50 1011 29.85 840 24.81 6.8 44.2 47 -3.7 25.4
04:55 1011 29.85 840 24.81 6.8 44.3 47 -3.6 25.4
05:00 1011 29.85 840 24.81 6.8 44.2 48 -3.4 25.9
05:05 1011 29.85 840 24.81 6.6 43.9 49 -3.2 26.3
05:10 1011 29.85 840 24.81 6.3 43.4 51 -3 26.6
05:15 1011 29.85 840 24.81 6 42.9 51 -3.4 25.9
05:20 1011 29.85 840 24.81 5.9 42.6 51 -3.5 25.8
05:25 1011 29.85 840 24.81 5.8 42.5 51 -3.4 25.9
05:30 1010 29.83 840 24.81 5.8 42.4 52 -3.3 26
05:35 1010 29.83 840 24.81 5.8 42.4 52 -3.3 26.1
05:40 1010 29.83 840 24.81 5.6 42.2 53 -3.1 26.4
05:45 1010 29.83 840 24.81 5.5 42 54 -3 26.6
05:50 1010 29.83 840 24.81 5.5 41.8 55 -2.8 27
05:55 1010 29.83 840 24.81 5.4 41.8 55 -2.8 26.9
06:00 1010 29.83 840 24.81 5.5 41.9 55 -2.8 27
06:05 1010 29.83 839 24.78 5.7 42.2 54 -3 26.6
06:10 1010 29.83 839 24.78 6.2 43.1 50 -3.4 26
06:15 1010 29.83 839 24.78 6.4 43.6 50 -3.2 26.2
06:20 1010 29.83 839 24.78 6.5 43.7 50 -3.1 26.4
06:25 1010 29.83 839 24.78 6.7 44 49 -3.2 26.2
06:30 1010 29.83 839 24.78 6.7 44.1 51 -2.8 27
06:35 1010 29.83 839 24.78 6.4 43.6 53 -2.4 27.7
06:40 1010 29.83 839 24.78 6 42.9 55 -2.3 27.9
06:45 1010 29.83 839 24.78 6 42.8 51 -3.4 26
06:50 1010 29.83 839 24.78 6.4 43.4 53 -2.5 27.5
06:55 1010 29.83 839 24.78 6.2 43.1 53 -2.8 26.9
07:00 1010 29.83 839 24.78 6.2 43.1 53 -2.7 27.1
07:05 1010 29.83 839 24.78 6.1 43 53 -2.7 27.2
07:10 1010 29.83 839 24.78 6.1 43 54 -2.6 27.4
07:15 1009 29.8 839 24.78 5.9 42.5 54 -2.6 27.3
07:20 1009 29.8 839 24.78 5.8 42.5 54 -2.7 27.2
07:25 1009 29.8 839 24.78 5.8 42.5 55 -2.5 27.5
07:30 1009 29.8 839 24.78 5.7 42.3 54 -2.8 27
07:35 1009 29.8 839 24.78 5.8 42.5 54 -2.7 27.1
07:40 1009 29.8 839 24.78 6 42.8 53 -2.7 27.1
07:45 1009 29.8 839 24.78 6.1 43 53 -2.7 27.1
07:50 1009 29.8 839 24.78 6.1 42.9 53 -2.7 27.1
07:55 1009 29.8 838 24.75 6.1 43 53 -2.8 26.9
08:00 1009 29.8 838 24.75 6.2 43.2 51 -3 26.5
08:05 1009 29.8 838 24.75 6.3 43.3 52 -2.8 26.9
08:10 1009 29.8 838 24.75 6.5 43.7 51 -3 26.7
08:15 1009 29.8 838 24.75 6.3 43.4 53 -2.5 27.4
08:20 1009 29.8 838 24.75 6.1 42.9 53 -2.8 26.9
08:25 1009 29.8 838 24.75 6.2 43.1 52 -2.9 26.7
08:30 1009 29.8 838 24.75 6.4 43.4 51 -3 26.6
08:35 1009 29.8 838 24.75 6.3 43.3 53 -2.6 27.4
08:40 1009 29.8 838 24.75 6 42.9 53 -2.7 27.1
08:45 1009 29.8 838 24.75 6 42.9 53 -2.7 27.1
08:50 1008 29.77 838 24.75 6.1 43 53 -2.8 26.9
08:55 1008 29.77 838 24.75 6.1 43 53 -2.8 27
09:00 1009 29.8 838 24.75 6 42.9 54 -2.7 27.2
09:05 1009 29.8 838 24.75 5.8 42.5 56 -2.2 28.1
09:10 1009 29.8 838 24.75 5.5 41.8 57 -2.4 27.7
09:15 1009 29.8 838 24.75 5.4 41.7 58 -2.2 28
09:20 1009 29.8 838 24.75 5.2 41.3 59 -2.1 28.2
09:25 1009 29.8 838 24.75 4.9 40.8 61 -2 28.4
09:30 1009 29.8 838 24.75 4.6 40.3 64 -1.7 29
09:35 1009 29.8 838 24.75 4.4 39.9 65 -1.7 29
09:40 1009 29.8 838 24.75 4.2 39.5 66 -1.7 29
09:45 1009 29.8 838 24.75 4 39.1 68 -1.3 29.6
09:50 1009 29.8 838 24.75 3.7 38.7 73 -0.6 30.9
09:55 1009 29.8 838 24.75 3.4 38.2 76 -0.4 31.3
10:00 1009 29.8 838 24.75 3.3 37.9 77 -0.4 31.2
10:05 1009 29.8 838 24.75 3.2 37.8 77 -0.4 31.2
10:10 1009 29.8 838 24.75 3.1 37.7 79 -0.2 31.6
10:15 1009 29.8 838 24.75 3.2 37.8 79 -0.2 31.7
10:20 1009 29.8 838 24.75 3.2 37.7 78 -0.3 31.5
10:25 1009 29.8 838 24.75 3.2 37.7 79 -0.1 31.8
10:30 1009 29.8 838 24.75 3.2 37.8 77 -0.4 31.3
10:35 1009 29.8 838 24.75 3.2 37.8 78 -0.3 31.4
10:40 1009 29.8 838 24.75 3.2 37.7 78 -0.3 31.4
10:45 1008 29.77 838 24.75 3.2 37.7 78 -0.3 31.4
10:50 1008 29.77 838 24.75 3.1 37.6 78 -0.3 31.5
10:55 1008 29.77 837 24.72 3.2 37.8 78 -0.3 31.5
11:00 1008 29.77 837 24.72 3.3 37.9 77 -0.3 31.4
11:05 1008 29.77 837 24.72 3.5 38.3 78 -0.1 31.9
11:10 1008 29.77 837 24.72 3.7 38.7 78 0.2 32.4
11:15 1008 29.77 837 24.72 4.1 39.4 73 -0.3 31.4
11:20 1008 29.77 837 24.72 4.5 40 71 -0.3 31.4
11:25 1008 29.77 837 24.72 4.5 40.2 73 0.1 32.2
11:30 1008 29.77 837 24.72 4.6 40.3 71 -0.2 31.7
11:35 1008 29.77 837 24.72 5.1 41.1 70 0.1 32.1
11:40 1008 29.77 837 24.72 5.4 41.6 68 0 32
11:45 1008 29.77 837 24.72 5.6 42 67 -0 32
11:50 1008 29.77 837 24.72 5.8 42.5 67 0.1 32.2
11:55 1008 29.77 837 24.72 6.3 43.4 65 0.2 32.4
12:00 1007 29.74 837 24.72 6.3 43.3 64 -0.1 31.9
12:05 1007 29.74 837 24.72 6.2 43.1 66 0.3 32.6
12:10 1007 29.74 837 24.72 5.7 42.3 70 0.7 33.3
12:15 1007 29.74 836 24.69 5.8 42.4 70 0.6 33.2
12:20 1007 29.74 836 24.69 6.1 42.9 66 0.2 32.3
12:25 1007 29.74 836 24.69 6.8 44.2 61 -0.2 31.7
12:30 1007 29.74 836 24.69 7.2 44.9 60 -0.1 31.9
12:35 1007 29.74 836 24.69 7.3 45.1 56 -0.8 30.5
12:40 1006 29.71 836 24.69 7.4 45.4 60 0.3 32.5
12:45 1006 29.71 835 24.66 7.5 45.5 58 -0.3 31.5
12:50 1006 29.71 835 24.66 7.4 45.4 61 0.3 32.6
12:55 1006 29.71 835 24.66 7.1 44.9 59 -0.2 31.6
13:00 1006 29.71 835 24.66 6.3 43.4 65 0.3 32.5
13:05 1006 29.71 835 24.66 7.2 45 60 -0.1 31.8
13:10 1006 29.71 835 24.66 7.8 46 57 -0.1 31.7
13:15 1006 29.71 835 24.66 7.1 44.7 60 -0.1 31.9
13:20 1006 29.71 835 24.66 6.4 43.5 56 -1.7 29
13:25 1006 29.71 835 24.66 6.9 44.4 54 -1.8 28.7
13:30 1005 29.68 835 24.66 7 44.6 51 -2.4 27.6
13:35 1005 29.68 835 24.66 7.1 44.8 59 -0.4 31.2
13:40 1006 29.71 835 24.66 4.8 40.6 70 -0.1 31.7
13:45 1007 29.74 836 24.69 2.7 36.9 77 -0.9 30.4
13:50 1007 29.74 836 24.69 0.5 32.9 85 -1.7 29
13:55 1007 29.74 836 24.69 -0.4 31.2 90 -1.8 28.7
14:00 1007 29.74 837 24.72 -0.8 30.5 91 -2.1 28.2
14:05 1007 29.74 837 24.72 -1 30.2 91 -2.3 27.9
14:10 1008 29.77 837 24.72 -0.9 30.3 91 -2.3 27.9
14:15 1007 29.74 837 24.72 -1 30.3 91 -2.2 28
14:20 1007 29.74 836 24.69 -1.3 29.7 90 -2.7 27.1
14:25 1008 29.77 837 24.72 -1.6 29.1 91 -2.9 26.7
14:30 1008 29.77 838 24.75 -1.7 28.9 91 -3 26.7
14:35 1009 29.8 838 24.75 -1.9 28.6 92 -3.1 26.4
14:40 1009 29.8 839 24.78 -1.9 28.6 93 -2.9 26.8
14:45 1009 29.8 839 24.78 -1.9 28.7 92 -2.9 26.7
14:50 1009 29.8 839 24.78 -2 28.4 93 -3 26.6
14:55 1010 29.83 839 24.78 -2 28.4 94 -2.9 26.8
15:00 1010 29.83 839 24.78 -1.9 28.6 94 -2.8 27
15:05 1009 29.8 839 24.78 -1.9 28.5 93 -2.9 26.8
15:10 1010 29.83 839 24.78 -2 28.3 93 -3.1 26.4
15:15 1010 29.83 839 24.78 -2.2 28 91 -3.5 25.7
15:20 1010 29.83 839 24.78 -2.2 28 92 -3.3 26
15:25 1010 29.83 839 24.78 -2.1 28.2 92 -3.3 26.1
15:30 1010 29.83 839 24.78 -2.1 28.3 92 -3.2 26.3
15:35 1011 29.85 840 24.81 -2.1 28.3 92 -3.2 26.3
15:40 1010 29.83 839 24.78 -2.1 28.2 92 -3.3 26.1
15:45 1010 29.83 840 24.81 -2.5 27.6 92 -3.7 25.4
15:50 1010 29.83 839 24.78 -2.7 27.1 89 -4.3 24.3
15:55 1010 29.83 839 24.78 -2.7 27.1 89 -4.4 24.2
16:00 1010 29.83 839 24.78 -2.6 27.4 85 -4.7 23.5
16:05 1010 29.83 839 24.78 -2.6 27.2 85 -4.8 23.4
16:10 1010 29.83 839 24.78 -2.9 26.7 85 -5.1 22.8
16:15 1010 29.83 839 24.78 -3.1 26.5 85 -5.2 22.6
16:20 1010 29.83 839 24.78 -2.7 27.1 80 -5.8 21.6
16:25 1010 29.83 839 24.78 -2.6 27.3 78 -5.9 21.4
16:30 1010 29.83 839 24.78 -2.5 27.4 79 -5.7 21.8
16:35 1010 29.83 839 24.78 -2.5 27.6 77 -6 21.2
16:40 1010 29.83 839 24.78 -2.3 27.8 77 -5.9 21.5
16:45 1010 29.83 839 24.78 -2.2 28.1 75 -6 21.2
16:50 1010 29.83 840 24.81 -2 28.4 72 -6.4 20.5
16:55 1010 29.83 840 24.81 -1.7 29 71 -6.3 20.6
17:00 1010 29.83 840 24.81 -1.2 29.9 65 -7 19.5
17:05 1011 29.85 840 24.81 -0.6 30.9 54 -8.9 16
17:10 1011 29.85 840 24.81 -0.3 31.4 48 -10.1 13.9
17:15 1011 29.85 840 24.81 -0.1 31.9 39 -12.6 9.4
17:20 1011 29.85 840 24.81 0.1 32.2 32 -14.7 5.5
17:25 1011 29.85 840 24.81 0.1 32.1 32 -14.9 5.2
17:30 1011 29.85 840 24.81 0.1 32.2 32 -14.7 5.6
17:35 1011 29.85 840 24.81 0.3 32.5 30 -15.4 4.4
17:40 1011 29.85 840 24.81 0.5 32.9 28 -15.9 3.4
17:45 1011 29.85 840 24.81 0.4 32.7 30 -15.3 4.5
17:50 1011 29.85 840 24.81 0.5 32.8 29 -15.8 3.6
17:55 1011 29.85 840 24.81 0.8 33.4 29 -15.5 4.2
18:00 1011 29.85 840 24.81 0.8 33.4 30 -15.1 4.8
18:05 1011 29.85 840 24.81 0.7 33.2 29 -15.5 4.2
18:10 1011 29.85 840 24.81 0.5 32.9 30 -15.1 4.8
18:15 1011 29.85 840 24.81 0.2 32.3 31 -15.2 4.7
18:20 1011 29.85 840 24.81 0.1 32.2 32 -14.9 5.3
18:25 1011 29.85 840 24.81 0 32 31 -15.1 4.9
18:30 1011 29.85 840 24.81 -0.1 31.8 31 -15.2 4.6
18:35 1011 29.85 840 24.81 -0.1 31.8 31 -15.3 4.5
18:40 1011 29.85 841 24.83 -0.2 31.7 31 -15.3 4.5
18:45 1011 29.85 841 24.83 -0.3 31.4 32 -15.3 4.4
18:50 1011 29.85 841 24.83 -0.5 31.1 32 -15.2 4.6
18:55 1012 29.88 841 24.83 -0.7 30.8 32 -15.6 4
19:00 1012 29.88 841 24.83 -0.8 30.5 32 -15.4 4.2
19:05 1012 29.88 841 24.83 -0.9 30.3 33 -15.4 4.2
19:10 1012 29.88 841 24.83 -1 30.2 33 -15.3 4.4
19:15 1012 29.88 841 24.83 -1.2 29.8 34 -15.2 4.6
19:20 1012 29.88 841 24.83 -1.4 29.4 36 -14.8 5.4
19:25 1012 29.88 841 24.83 -1.6 29.2 36 -14.7 5.6
19:30 1012 29.88 841 24.83 -1.7 29 36 -15.1 4.9
19:35 1012 29.88 841 24.83 -1.7 29 36 -14.9 5.1
19:40 1012 29.88 842 24.86 -1.8 28.8 37 -14.7 5.5
19:45 1012 29.88 842 24.86 -1.9 28.7 39 -14.2 6.4
19:50 1013 29.91 842 24.86 -2 28.5 38 -14.4 6.1
19:55 1013 29.91 842 24.86 -2 28.4 40 -14 6.9
20:00 1013 29.91 842 24.86 -2.1 28.1 40 -14 6.9
20:05 1013 29.91 842 24.86 -2.2 28 42 -13.6 7.4
20:10 1013 29.91 842 24.86 -2.4 27.7 42 -13.5 7.7
20:15 1013 29.91 842 24.86 -2.4 27.6 43 -13.5 7.7
20:20 1013 29.91 842 24.86 -2.5 27.5 43 -13.4 8
20:25 1013 29.91 842 24.86 -2.6 27.4 42 -13.8 7.2
20:30 1013 29.91 842 24.86 -2.5 27.6 41 -14 6.9
20:35 1013 29.91 842 24.86 -2.4 27.8 41 -14.1 6.7
20:40 1013 29.91 843 24.89 -2.3 27.9 42 -13.7 7.3
20:45 1013 29.91 843 24.89 -2.3 27.9 42 -13.6 7.5
20:50 1013 29.91 843 24.89 -2.3 27.9 43 -13.2 8.2
20:55 1014 29.94 843 24.89 -2.3 27.8 43 -13.2 8.3
21:00 1014 29.94 843 24.89 -2.3 27.8 44 -13 8.6
21:05 1014 29.94 843 24.89 -2.4 27.7 45 -12.9 8.7
21:10 1014 29.94 843 24.89 -2.5 27.5 44 -13.1 8.5
21:15 1014 29.94 843 24.89 -2.5 27.4 46 -12.6 9.3
21:20 1014 29.94 843 24.89 -2.5 27.4 46 -12.6 9.4
21:25 1014 29.94 843 24.89 -2.5 27.5 45 -12.9 8.8
21:30 1014 29.94 843 24.89 -2.4 27.6 45 -12.7 9.1
21:35 1014 29.94 843 24.89 -2.4 27.6 42 -13.6 7.6
21:40 1014 29.94 843 24.89 -2.3 27.8 44 -13.1 8.4
21:45 1014 29.94 843 24.89 -2.3 27.9 44 -13 8.5
21:50 1014 29.94 843 24.89 -2.3 27.9 46 -12.3 9.9
21:55 1014 29.94 843 24.89 -2.3 27.9 48 -12 10.5
22:00 1014 29.94 843 24.89 -2.3 27.8 48 -11.9 10.6
22:05 1014 29.94 843 24.89 -2.3 27.8 49 -11.6 11.1
22:10 1014 29.94 843 24.89 -2.4 27.7 49 -11.8 10.7
22:15 1014 29.94 843 24.89 -2.4 27.6 46 -12.7 9.2
22:20 1014 29.94 843 24.89 -2.3 27.8 44 -13.1 8.4
22:25 1014 29.94 843 24.89 -2.2 28.1 44 -12.8 8.9
22:30 1014 29.94 843 24.89 -2.2 28.1 44 -12.8 9
22:35 1014 29.94 843 24.89 -2.2 28 45 -12.6 9.3
22:40 1014 29.94 844 24.92 -2.3 27.9 45 -12.6 9.4
22:45 1014 29.94 844 24.92 -2.4 27.7 46 -12.5 9.6
22:50 1014 29.94 844 24.92 -2.5 27.6 47 -12.3 9.9
22:55 1014 29.94 844 24.92 -2.5 27.5 47 -12.3 9.9
23:00 1014 29.94 844 24.92 -2.5 27.6 45 -12.8 9
23:05 1015 29.97 844 24.92 -2.4 27.7 47 -12.3 9.8
23:10 1015 29.97 844 24.92 -2.4 27.7 52 -11 12.2
23:15 1015 29.97 844 24.92 -2.7 27.1 61 -9.2 15.4
23:20 1015 29.97 844 24.92 -3.2 26.3 70 -7.9 17.8
23:25 1015 29.97 844 24.92 -3.7 25.3 72 -8 17.6
23:30 1015 29.97 844 24.92 -4 24.9 74 -7.9 17.8
23:35 1015 29.97 844 24.92 -4.2 24.4 75 -7.9 17.7
23:40 1015 29.97 844 24.92 -4.4 24.2 75 -8.1 17.4
23:45 1015 29.97 845 24.95 -4.5 24 74 -8.4 17
23:50 1015 29.97 845 24.95 -4.6 23.7 74 -8.6 16.6
23:55 1015 29.97 845 24.95 -4.7 23.5 74 -8.7 16.4
24:00 1016 30 845 24.95 -4.7 23.5 75 -8.6 16.6